Time;durP1;ratioP1;P1;durP2;ratioP2;P2;SDS_P1;SDS_P2;PMS_P1;PMS_P2;Temp;Humidity;BMP_temperature;BMP_pressure;BME280_temperature;BME280_humidity;BME280_pressure;Samples;Min_cycle;Max_cycle;Signal;HPM_P1;HPM_P2
2022/03/23 00:00:46;;;;;;;;;;;;;;;17.98;52.85;102744.69;1016966;29;1646;-84
2022/03/23 00:01:36;;;;;;;;;;;;;;;17.98;52.97;102747.41;1019197;29;667;-84
2022/03/23 00:02:26;;;;;;;;;;;;;;;17.97;53.11;102749.22;1021396;29;659;-84
2022/03/23 00:03:17;;;;;;;;;;;;;;;17.96;53.12;102749.34;1017994;29;657;-84
2022/03/23 00:04:07;;;;;;;;;;;;;;;17.96;52.11;102752.03;1017786;29;701;-83
2022/03/23 00:04:58;;;;;;;;;;;;;;;17.95;52.66;102747.59;1016012;29;699;-78
2022/03/23 00:05:48;;;;;;;;;;;;;;;17.95;52.63;102747.59;1015605;29;660;-79
2022/03/23 00:06:38;;;;;;;;;;;;;;;17.95;52.61;102744.91;1015829;29;666;-81
2022/03/23 00:07:29;;;;;;;;;;;;;;;17.93;52.53;102745.00;1017873;29;619;-78
2022/03/23 00:08:21;;;;;;;;;;;;;;;17.92;52.26;102742.41;1014280;29;1251;-79
2022/03/23 00:09:13;;;;;;;;;;;;;;;17.92;52.90;102745.97;1017519;29;1454;-79
2022/03/23 00:10:03;;;;;;;;;;;;;;;17.91;52.83;102744.25;1017007;29;636;-79
2022/03/23 00:10:53;;;;;;;;;;;;;;;17.91;52.69;102743.41;1013326;29;923;-78
2022/03/23 00:11:44;;;;;;;;;;;;;;;17.89;52.62;102743.50;1014495;29;639;-79
2022/03/23 00:12:34;;;;;;;;;;;;;;;17.89;52.78;102737.22;1013297;29;631;-79
2022/03/23 00:13:25;;;;;;;;;;;;;;;17.89;53.23;102745.31;1018048;29;1895;-79
2022/03/23 00:14:15;;;;;;;;;;;;;;;17.88;52.35;102740.91;1017041;29;640;-79
2022/03/23 00:15:06;;;;;;;;;;;;;;;17.87;52.17;102742.72;1014457;29;631;-79
2022/03/23 00:15:58;;;;;;;;;;;;;;;17.88;52.51;102746.28;1013313;29;672;-79
2022/03/23 00:16:49;;;;;;;;;;;;;;;17.87;52.11;102733.75;1013228;29;683;-79
2022/03/23 00:17:40;;;;;;;;;;;;;;;17.86;52.55;102741.00;1013377;29;659;-79
2022/03/23 00:18:30;;;;;;;;;;;;;;;17.85;52.32;102739.25;1013315;29;643;-79
2022/03/23 00:19:20;;;;;;;;;;;;;;;17.85;53.21;102738.41;1013409;29;679;-79
2022/03/23 00:20:11;;;;;;;;;;;;;;;17.83;52.21;102735.78;1013015;29;683;-79
2022/03/23 00:21:02;;;;;;;;;;;;;;;17.84;52.68;102742.06;1013266;29;628;-80
2022/03/23 00:21:52;;;;;;;;;;;;;;;17.84;52.47;102742.06;1013368;29;715;-78
2022/03/23 00:22:43;;;;;;;;;;;;;;;17.83;53.17;102741.19;1013313;29;698;-77
2022/03/23 00:23:33;;;;;;;;;;;;;;;17.82;52.45;102739.44;1013241;29;659;-77
2022/03/23 00:24:24;;;;;;;;;;;;;;;17.81;52.61;102739.56;1013036;29;643;-77
2022/03/23 00:25:14;;;;;;;;;;;;;;;17.81;52.60;102743.13;1013309;29;687;-77
2022/03/23 00:26:04;;;;;;;;;;;;;;;17.80;52.25;102736.00;1013440;29;691;-78
2022/03/23 00:26:55;;;;;;;;;;;;;;;17.79;53.03;102738.78;1013171;29;722;-79
2022/03/23 00:27:45;;;;;;;;;;;;;;;17.79;52.76;102744.19;1013146;29;1162;-78
2022/03/23 00:28:37;;;;;;;;;;;;;;;17.79;52.95;102739.66;1013812;29;663;-79
2022/03/23 00:29:27;;;;;;;;;;;;;;;17.79;52.56;102741.47;1013283;29;647;-79
2022/03/23 00:30:18;;;;;;;;;;;;;;;17.79;52.24;102738.78;1013363;29;620;-79
2022/03/23 00:31:09;;;;;;;;;;;;;;;17.77;53.15;102738.00;1013340;29;678;-79
2022/03/23 00:31:59;;;;;;;;;;;;;;;17.76;52.31;102741.66;1012865;29;733;-79
2022/03/23 00:32:50;;;;;;;;;;;;;;;17.76;52.78;102749.75;1012725;29;707;-79
2022/03/23 00:33:40;;;;;;;;;;;;;;;17.75;52.38;102746.19;1014426;29;661;-79
2022/03/23 00:34:31;;;;;;;;;;;;;;;17.75;52.95;102753.41;1014289;29;654;-79
2022/03/23 00:35:22;;;;;;;;;;;;;;;17.73;52.68;102737.38;1012728;29;814;-79
2022/03/23 00:36:13;;;;;;;;;;;;;;;17.73;53.00;102740.06;1012904;29;719;-79
2022/03/23 00:37:03;;;;;;;;;;;;;;;17.73;52.44;102739.19;1012759;29;703;-79
2022/03/23 00:37:55;;;;;;;;;;;;;;;17.73;52.79;102744.59;1012875;29;783;-79
2022/03/23 00:38:46;;;;;;;;;;;;;;;17.73;52.27;102741.91;1013347;29;734;-79
2022/03/23 00:39:37;;;;;;;;;;;;;;;17.72;52.37;102743.72;1014175;29;718;-79
2022/03/23 00:40:30;;;;;;;;;;;;;;;17.72;53.28;102742.88;1013576;29;683;-78
2022/03/23 00:41:20;;;;;;;;;;;;;;;17.71;52.89;102744.69;1013868;29;678;-83
2022/03/23 00:42:11;;;;;;;;;;;;;;;17.69;52.65;102739.41;1012834;29;659;-81
2022/03/23 00:43:01;;;;;;;;;;;;;;;17.68;52.74;102743.06;1014388;29;706;-82
2022/03/23 00:43:52;;;;;;;;;;;;;;;17.68;52.55;102748.44;1012704;29;647;-82
2022/03/23 00:44:42;;;;;;;;;;;;;;;17.68;52.98;102743.06;1012694;29;636;-82
2022/03/23 00:45:32;;;;;;;;;;;;;;;17.66;52.69;102734.19;1014387;29;741;-83
2022/03/23 00:46:24;;;;;;;;;;;;;;;17.66;52.79;102742.28;1014425;29;662;-83
2022/03/23 00:47:14;;;;;;;;;;;;;;;17.66;52.65;102738.72;1012801;29;707;-81
2022/03/23 00:48:05;;;;;;;;;;;;;;;17.64;52.31;102743.34;1012616;29;710;-82
2022/03/23 00:48:55;;;;;;;;;;;;;;;17.62;53.28;102738.00;1014058;29;710;-79
2022/03/23 00:49:46;;;;;;;;;;;;;;;17.62;53.35;102743.41;1013466;29;818;-81
2022/03/23 00:50:36;;;;;;;;;;;;;;;17.62;52.73;102738.00;1016275;29;703;-81
2022/03/23 00:51:27;;;;;;;;;;;;;;;17.62;52.52;102737.16;1013411;29;710;-81
2022/03/23 00:52:18;;;;;;;;;;;;;;;17.60;52.83;102734.53;1012611;29;687;-81
2022/03/23 00:53:08;;;;;;;;;;;;;;;17.61;53.01;102741.69;1012316;29;1976;-81
2022/03/23 00:53:59;;;;;;;;;;;;;;;17.59;52.26;102738.22;1014375;29;787;-83
2022/03/23 00:54:49;;;;;;;;;;;;;;;17.59;52.48;102743.59;1012672;29;620;-83
2022/03/23 00:55:40;;;;;;;;;;;;;;;17.58;52.76;102741.88;1012762;29;710;-83
2022/03/23 00:56:31;;;;;;;;;;;;;;;17.58;52.74;102739.16;1014244;29;640;-81
2022/03/23 00:57:21;;;;;;;;;;;;;;;17.56;52.60;102735.69;1012782;29;650;-81
2022/03/23 00:58:11;;;;;;;;;;;;;;;17.56;52.94;102743.78;1014306;29;650;-80
2022/03/23 00:59:02;;;;;;;;;;;;;;;17.55;53.04;102734.00;1014425;29;657;-81
2022/03/23 00:59:52;;;;;;;;;;;;;;;17.57;52.31;102744.66;1012671;29;710;-81
2022/03/23 01:00:45;;;;;;;;;;;;;;;17.55;52.85;102742.09;1017580;29;1395;-81
2022/03/23 01:01:35;;;;;;;;;;;;;;;17.54;52.37;102743.06;1017224;29;654;-82
2022/03/23 01:02:26;;;;;;;;;;;;;;;17.54;53.00;102740.34;1017182;29;776;-82
2022/03/23 01:03:17;;;;;;;;;;;;;;;17.55;52.85;102743.91;1017257;29;652;-81
2022/03/23 01:04:07;;;;;;;;;;;;;;;17.52;52.33;102739.59;1017194;29;697;-82
2022/03/23 01:04:58;;;;;;;;;;;;;;;17.51;53.01;102735.16;1017175;29;674;-82
2022/03/23 01:05:48;;;;;;;;;;;;;;;17.50;52.54;102737.94;1017131;29;654;-82
2022/03/23 01:06:39;;;;;;;;;;;;;;;17.51;53.11;102735.16;1017062;29;670;-82
2022/03/23 01:07:29;;;;;;;;;;;;;;;17.51;52.63;102737.84;1016672;29;643;-82
2022/03/23 01:08:20;;;;;;;;;;;;;;;17.50;52.56;102732.56;1017041;29;1191;-82
2022/03/23 01:09:10;;;;;;;;;;;;;;;17.49;52.90;102737.06;1017139;29;670;-82
2022/03/23 01:10:00;;;;;;;;;;;;;;;17.47;52.83;102733.63;1017235;29;765;-82
2022/03/23 01:10:51;;;;;;;;;;;;;;;17.47;52.44;102736.31;1017060;29;647;-82
2022/03/23 01:11:41;;;;;;;;;;;;;;;17.45;52.52;102730.16;1017645;29;710;-86
2022/03/23 01:12:32;;;;;;;;;;;;;;;17.46;53.00;102729.19;1017736;29;717;-88
2022/03/23 01:13:22;;;;;;;;;;;;;;;17.45;52.50;102729.28;1017367;29;1951;-89
2022/03/23 01:14:13;;;;;;;;;;;;;;;17.44;52.79;102730.25;1016945;29;631;-89
2022/03/23 01:15:03;;;;;;;;;;;;;;;17.43;52.93;102729.38;1017032;29;874;-89
2022/03/23 01:15:54;;;;;;;;;;;;;;;17.44;52.86;102725.72;1017242;29;670;-88
2022/03/23 01:16:44;;;;;;;;;;;;;;;17.43;52.49;102728.50;1017159;29;639;-88
2022/03/23 01:17:35;;;;;;;;;;;;;;;17.42;52.54;102727.63;1017259;29;680;-82
2022/03/23 01:18:26;;;;;;;;;;;;;;;17.40;53.19;102729.56;1017245;29;638;-81
2022/03/23 01:19:17;;;;;;;;;;;;;;;17.40;52.91;102732.25;1017051;29;635;-82
2022/03/23 01:20:08;;;;;;;;;;;;;;;17.39;52.61;102727.84;1017154;29;662;-82
2022/03/23 01:21:00;;;;;;;;;;;;;;;17.39;52.69;102725.13;1017067;29;690;-83
2022/03/23 01:21:51;;;;;;;;;;;;;;;17.39;53.09;102719.75;1017154;29;758;-82
2022/03/23 01:22:41;;;;;;;;;;;;;;;17.39;52.44;102718.88;1017118;29;988;-82
2022/03/23 01:23:32;;;;;;;;;;;;;;;17.38;52.38;102722.56;1017075;29;673;-81
2022/03/23 01:24:22;;;;;;;;;;;;;;;17.37;52.96;102719.00;1017141;29;690;-88
2022/03/23 01:25:13;;;;;;;;;;;;;;;17.37;53.09;102721.69;1017169;29;644;-87
2022/03/23 01:26:04;;;;;;;;;;;;;;;17.36;52.53;102722.66;1017088;29;655;-87
2022/03/23 01:26:54;;;;;;;;;;;;;;;17.35;52.70;102729.00;1017352;29;714;-88
2022/03/23 01:27:45;;;;;;;;;;;;;;;17.33;52.95;102712.94;1016918;29;1324;-86
2022/03/23 01:28:35;;;;;;;;;;;;;;;17.35;52.80;102718.22;1017771;29;738;-88
2022/03/23 01:29:25;;;;;;;;;;;;;;;17.34;52.89;102716.50;1017087;29;722;-88
2022/03/23 01:30:16;;;;;;;;;;;;;;;17.34;52.95;102720.06;1016949;29;1622;-84
2022/03/23 01:31:08;;;;;;;;;;;;;;;17.34;52.76;102721.88;1017182;29;619;-82
2022/03/23 01:31:58;;;;;;;;;;;;;;;17.32;53.14;102718.41;1018449;29;701;-81
2022/03/23 01:32:49;;;;;;;;;;;;;;;17.31;52.33;102716.69;1017889;29;627;-81
2022/03/23 01:33:39;;;;;;;;;;;;;;;17.31;52.59;102717.56;1017819;29;627;-81
2022/03/23 01:34:29;;;;;;;;;;;;;;;17.30;52.79;102717.66;1021587;29;666;-82
2022/03/23 01:35:20;;;;;;;;;;;;;;;17.29;53.11;102721.31;1021510;29;674;-82
2022/03/23 01:36:10;;;;;;;;;;;;;;;17.29;53.00;102714.09;1017987;29;729;-82
2022/03/23 01:37:01;;;;;;;;;;;;;;;17.28;52.90;102723.13;1017860;29;733;-82
2022/03/23 01:37:52;;;;;;;;;;;;;;;17.28;52.85;102723.13;1017800;29;707;-82
2022/03/23 01:38:42;;;;;;;;;;;;;;;17.28;52.63;102722.28;1017836;29;612;-82
2022/03/23 01:39:33;;;;;;;;;;;;;;;17.28;52.89;102716.88;1017877;29;679;-82
2022/03/23 01:40:23;;;;;;;;;;;;;;;17.28;52.86;102724.97;1017242;29;722;-79
2022/03/23 01:41:13;;;;;;;;;;;;;;;17.27;53.17;102721.41;1021389;29;635;-85
2022/03/23 01:42:04;;;;;;;;;;;;;;;17.27;53.03;102717.84;1021918;29;668;-83
2022/03/23 01:42:54;;;;;;;;;;;;;;;17.25;52.80;102723.31;1017966;29;647;-82
2022/03/23 01:43:45;;;;;;;;;;;;;;;17.25;53.12;102717.94;1021441;29;646;-82
2022/03/23 01:44:35;;;;;;;;;;;;;;;17.24;52.54;102720.72;1021430;29;704;-82
2022/03/23 01:45:26;;;;;;;;;;;;;;;17.24;53.10;102720.72;1017972;29;649;-82
2022/03/23 01:46:17;;;;;;;;;;;;;;;17.23;52.92;102716.28;1017766;29;702;-83
2022/03/23 01:47:07;;;;;;;;;;;;;;;17.23;52.70;102716.28;1017848;29;643;-83
2022/03/23 01:47:57;;;;;;;;;;;;;;;17.23;52.44;102710.91;1017865;29;702;-83
2022/03/23 01:48:48;;;;;;;;;;;;;;;17.22;52.55;102710.03;1017944;29;793;-83
2022/03/23 01:49:39;;;;;;;;;;;;;;;17.22;52.82;102719.94;1021496;29;691;-83
2022/03/23 01:50:29;;;;;;;;;;;;;;;17.21;52.68;102716.38;1021399;29;651;-80
2022/03/23 01:51:19;;;;;;;;;;;;;;;17.21;52.55;102715.53;1017443;29;661;-76
2022/03/23 01:52:10;;;;;;;;;;;;;;;17.20;53.23;102716.47;1017766;29;722;-82
2022/03/23 01:53:00;;;;;;;;;;;;;;;17.20;53.05;102720.03;1021395;29;703;-82
2022/03/23 01:53:51;;;;;;;;;;;;;;;17.20;52.82;102713.78;1021441;29;730;-80
2022/03/23 01:54:41;;;;;;;;;;;;;;;17.18;53.24;102716.59;1017846;29;635;-82
2022/03/23 01:55:31;;;;;;;;;;;;;;;17.18;52.31;102721.13;1021550;29;654;-78
2022/03/23 01:56:22;;;;;;;;;;;;;;;17.19;52.65;102714.78;1021397;29;643;-86
2022/03/23 01:57:13;;;;;;;;;;;;;;;17.17;53.11;102712.19;1017515;29;918;-83
2022/03/23 01:58:03;;;;;;;;;;;;;;;17.16;52.78;102712.28;1017769;29;669;-85
2022/03/23 01:58:54;;;;;;;;;;;;;;;17.18;53.07;102715.75;1017719;29;656;-84
2022/03/23 01:59:44;;;;;;;;;;;;;;;17.17;52.60;102704.09;1017821;29;659;-87
2022/03/23 02:00:35;;;;;;;;;;;;;;;17.16;53.01;102714.97;1018046;29;694;-87
2022/03/23 02:01:25;;;;;;;;;;;;;;;17.15;52.92;102703.31;1017773;29;687;-85
2022/03/23 02:02:16;;;;;;;;;;;;;;;17.14;52.87;102709.69;1017320;29;1662;-84
2022/03/23 02:03:06;;;;;;;;;;;;;;;17.14;52.52;102714.19;1017703;29;679;-88
2022/03/23 02:03:57;;;;;;;;;;;;;;;17.13;52.51;102707.94;1017857;29;746;-88
2022/03/23 02:04:48;;;;;;;;;;;;;;;17.13;52.64;102707.06;1017925;29;619;-88
2022/03/23 02:05:38;;;;;;;;;;;;;;;17.13;53.17;102709.78;1017335;29;646;-86
2022/03/23 02:06:29;;;;;;;;;;;;;;;17.12;53.09;102708.91;1017790;29;675;-86
2022/03/23 02:07:19;;;;;;;;;;;;;;;17.12;52.97;102702.66;1017634;29;628;-88
2022/03/23 02:08:09;;;;;;;;;;;;;;;17.11;53.12;102709.00;1017671;29;1218;-88
2022/03/23 02:09:00;;;;;;;;;;;;;;;17.11;53.15;102701.78;1017745;29;639;-88
2022/03/23 02:09:50;;;;;;;;;;;;;;;17.10;52.77;102702.75;1017755;29;612;-89
2022/03/23 02:10:41;;;;;;;;;;;;;;;17.09;52.96;102705.53;1017812;29;682;-89
2022/03/23 02:11:32;;;;;;;;;;;;;;;17.09;52.82;102708.22;1018048;29;660;-90
2022/03/23 02:12:23;;;;;;;;;;;;;;;17.09;52.37;102702.84;1017452;29;718;-86
2022/03/23 02:13:13;;;;;;;;;;;;;;;17.08;53.17;102695.72;1017638;29;1898;-83
2022/03/23 02:14:04;;;;;;;;;;;;;;;17.08;52.65;102698.41;1017802;29;691;-83
2022/03/23 02:14:54;;;;;;;;;;;;;;;17.07;52.83;102702.94;1018305;29;690;-84
2022/03/23 02:15:44;;;;;;;;;;;;;;;17.07;52.97;102702.06;1017679;29;635;-84
2022/03/23 02:16:35;;;;;;;;;;;;;;;17.06;52.73;102697.63;1017863;29;682;-84
2022/03/23 02:17:25;;;;;;;;;;;;;;;17.05;52.48;102695.91;1017717;29;691;-84
2022/03/23 02:18:16;;;;;;;;;;;;;;;17.05;53.20;102698.59;1017731;29;686;-82
2022/03/23 02:19:06;;;;;;;;;;;;;;;17.05;52.46;102693.22;1017827;29;696;-82
2022/03/23 02:19:56;;;;;;;;;;;;;;;17.04;52.54;102697.72;1017789;29;559;-84
2022/03/23 02:20:47;;;;;;;;;;;;;;;17.04;53.34;102703.13;1017779;29;660;-87
2022/03/23 02:21:37;;;;;;;;;;;;;;;17.03;52.45;102696.00;1017684;29;631;-85
2022/03/23 02:22:28;;;;;;;;;;;;;;;17.03;53.05;102693.28;1017911;29;643;-83
2022/03/23 02:23:18;;;;;;;;;;;;;;;17.02;52.71;102697.81;1017156;29;1559;-83
2022/03/23 02:24:09;;;;;;;;;;;;;;;17.02;52.83;102701.50;1018217;29;662;-88
2022/03/23 02:24:59;;;;;;;;;;;;;;;17.02;53.05;102693.44;1018032;29;1282;-78
2022/03/23 02:25:49;;;;;;;;;;;;;;;17.00;52.78;102688.13;1018200;29;670;-80
2022/03/23 02:26:40;;;;;;;;;;;;;;;17.00;52.70;102697.06;1015953;29;1178;-79
2022/03/23 02:27:31;;;;;;;;;;;;;;;17.00;52.56;102691.69;1015838;29;1240;-82
2022/03/23 02:28:21;;;;;;;;;;;;;;;17.00;52.91;102702.47;1015195;29;1238;-84
2022/03/23 02:29:13;;;;;;;;;;;;;;;16.99;53.12;102698.03;1015862;29;1013;-83
2022/03/23 02:30:05;;;;;;;;;;;;;;;17.00;52.84;102702.47;1015586;29;1006;-84
2022/03/23 02:30:56;;;;;;;;;;;;;;;17.00;53.14;102698.91;1015118;29;1112;-85
2022/03/23 02:31:46;;;;;;;;;;;;;;;16.97;52.39;102699.97;1015877;29;1068;-76
2022/03/23 02:32:37;;;;;;;;;;;;;;;16.97;53.08;102697.25;1017422;29;1143;-75
2022/03/23 02:33:27;;;;;;;;;;;;;;;16.96;52.98;102702.75;1016222;29;1911;-78
2022/03/23 02:34:19;;;;;;;;;;;;;;;16.95;52.86;102704.56;1017257;29;1246;-78
2022/03/23 02:35:13;;;;;;;;;;;;;;;16.95;52.87;102703.69;1016479;29;1077;-79
2022/03/23 02:36:03;;;;;;;;;;;;;;;16.95;53.08;102701.00;1017410;29;1179;-78
2022/03/23 02:36:54;;;;;;;;;;;;;;;16.93;53.04;102695.72;1017482;29;1085;-84
2022/03/23 02:37:44;;;;;;;;;;;;;;;16.93;52.98;102694.84;1017510;29;1081;-81
2022/03/23 02:38:34;;;;;;;;;;;;;;;16.93;53.00;102698.41;1016319;29;1108;-82
2022/03/23 02:39:28;;;;;;;;;;;;;;;16.94;53.17;102701.97;1017450;29;1093;-79
2022/03/23 02:40:18;;;;;;;;;;;;;;;16.91;52.82;102703.03;1017290;29;1195;-81
2022/03/23 02:41:09;;;;;;;;;;;;;;;16.92;52.94;102701.19;1017538;29;1084;-77
2022/03/23 02:41:59;;;;;;;;;;;;;;;16.91;53.03;102696.78;1020010;29;1096;-80
2022/03/23 02:42:50;;;;;;;;;;;;;;;16.91;52.74;102703.03;1021056;29;1116;-79
2022/03/23 02:43:40;;;;;;;;;;;;;;;16.92;53.05;102703.88;1015736;29;1313;-79
2022/03/23 02:44:32;;;;;;;;;;;;;;;16.91;52.92;102700.31;1017183;29;1161;-85
2022/03/23 02:45:22;;;;;;;;;;;;;;;16.91;52.92;102704.84;1017571;29;1162;-83
2022/03/23 02:46:13;;;;;;;;;;;;;;;16.89;53.05;102696.00;1019519;29;1240;-90
2022/03/23 02:47:04;;;;;;;;;;;;;;;16.90;52.71;102697.72;1019819;29;1177;-82
2022/03/23 02:47:55;;;;;;;;;;;;;;;16.89;52.97;102696.00;1018114;29;1209;-84
2022/03/23 02:48:45;;;;;;;;;;;;;;;16.88;52.73;102696.94;1015776;29;1166;-83
2022/03/23 02:49:35;;;;;;;;;;;;;;;16.87;53.00;102696.09;1018009;29;1185;-80
2022/03/23 02:50:26;;;;;;;;;;;;;;;16.88;52.83;102696.94;1016439;29;1169;-86
2022/03/23 02:51:16;;;;;;;;;;;;;;;16.87;52.85;102696.09;1019440;29;1232;-86
2022/03/23 02:52:07;;;;;;;;;;;;;;;16.86;52.85;102688.09;1019456;29;1231;-83
2022/03/23 03:01:58;;;;;;;;;;;;;;;16.82;53.03;102703.59;1016475;29;1580;-80
2022/03/23 03:02:48;;;;;;;;;;;;;;;16.82;52.74;102702.75;1018171;29;666;-84
2022/03/23 03:03:39;;;;;;;;;;;;;;;16.80;53.09;102697.44;1017034;29;1575;-85
2022/03/23 03:04:29;;;;;;;;;;;;;;;16.81;53.06;102701.00;1017474;29;643;-83
2022/03/23 03:05:20;;;;;;;;;;;;;;;16.80;52.84;102701.97;1017508;29;654;-84
2022/03/23 03:06:10;;;;;;;;;;;;;;;16.80;52.64;102702.84;1017473;29;690;-86
2022/03/23 03:07:01;;;;;;;;;;;;;;;16.79;52.80;102703.78;1021300;29;725;-80
2022/03/23 03:09:01;;;;;;;;;;;;;;;16.78;52.82;102702.06;1018074;29;639;-82
2022/03/23 03:09:51;;;;;;;;;;;;;;;16.77;52.72;102697.63;1017744;29;1199;-83
2022/03/23 03:10:42;;;;;;;;;;;;;;;16.78;52.56;102709.25;1017497;29;635;-84
2022/03/23 03:11:32;;;;;;;;;;;;;;;16.76;52.52;102700.41;1017375;29;737;-85
2022/03/23 03:12:23;;;;;;;;;;;;;;;16.76;52.73;102703.97;1017533;29;654;-84
2022/03/23 03:13:13;;;;;;;;;;;;;;;16.75;52.73;102707.63;1017380;29;1977;-85
2022/03/23 03:14:03;;;;;;;;;;;;;;;16.75;52.81;102702.25;1017480;29;632;-80
2022/03/23 03:14:54;;;;;;;;;;;;;;;16.75;52.82;102701.38;1017512;29;683;-79
2022/03/23 03:15:44;;;;;;;;;;;;;;;16.74;52.81;102702.31;1017438;29;695;-79
2022/03/23 03:16:35;;;;;;;;;;;;;;;16.73;52.66;102704.16;1017460;29;705;-79
2022/03/23 03:17:25;;;;;;;;;;;;;;;16.72;52.90;102699.72;1018031;29;634;-81
2022/03/23 03:18:16;;;;;;;;;;;;;;;16.74;52.76;102710.41;1017575;29;686;-81
2022/03/23 03:19:09;;;;;;;;;;;;;;;16.72;52.91;102702.41;1017552;29;647;-81
2022/03/23 03:19:59;;;;;;;;;;;;;;;16.72;52.83;102705.13;1017538;29;713;-80
2022/03/23 03:20:49;;;;;;;;;;;;;;;16.73;52.96;102708.69;1018004;29;630;-80
2022/03/23 03:21:40;;;;;;;;;;;;;;;16.72;52.82;102704.25;1017473;29;663;-81
2022/03/23 03:22:30;;;;;;;;;;;;;;;16.72;52.70;102712.31;1017406;29;706;-79
2022/03/23 03:23:22;;;;;;;;;;;;;;;16.70;52.85;102704.34;1017304;29;1590;-79
2022/03/23 03:24:13;;;;;;;;;;;;;;;16.71;52.58;102702.50;1017366;29;655;-84
2022/03/23 03:25:03;;;;;;;;;;;;;;;16.69;53.13;102710.69;1016886;29;706;-82
2022/03/23 03:25:54;;;;;;;;;;;;;;;16.69;52.51;102705.28;1016975;29;718;-82
2022/03/23 03:26:45;;;;;;;;;;;;;;;16.68;52.95;102700.88;1016916;29;690;-84
2022/03/23 03:27:35;;;;;;;;;;;;;;;16.69;52.70;102710.69;1017280;29;1153;-83
2022/03/23 03:28:27;;;;;;;;;;;;;;;16.68;52.76;102700.88;1016863;29;694;-83
2022/03/23 03:29:18;;;;;;;;;;;;;;;16.66;52.87;102700.97;1017392;29;717;-79
2022/03/23 03:30:08;;;;;;;;;;;;;;;16.66;52.39;102698.28;1016810;29;709;-79
2022/03/23 03:30:59;;;;;;;;;;;;;;;16.67;52.68;102709.91;1017471;29;694;-80
2022/03/23 03:31:49;;;;;;;;;;;;;;;16.66;52.78;102705.47;1017451;29;612;-80
2022/03/23 03:32:39;;;;;;;;;;;;;;;16.66;52.45;102705.47;1016924;29;716;-80
2022/03/23 03:33:30;;;;;;;;;;;;;;;16.66;52.93;102708.16;1016851;29;1914;-85
2022/03/23 03:34:20;;;;;;;;;;;;;;;16.65;52.83;102704.66;1016780;29;710;-83
2022/03/23 03:35:11;;;;;;;;;;;;;;;16.64;52.51;102700.22;1016956;29;686;-84
2022/03/23 03:36:01;;;;;;;;;;;;;;;16.64;52.20;102708.28;1016797;29;725;-84
2022/03/23 03:36:51;;;;;;;;;;;;;;;16.65;53.04;102703.78;1016809;29;639;-84
2022/03/23 03:37:42;;;;;;;;;;;;;;;16.64;52.66;102715.50;1017372;29;679;-84
2022/03/23 03:38:32;;;;;;;;;;;;;;;16.63;52.61;102708.38;1016779;29;644;-84
2022/03/23 03:39:23;;;;;;;;;;;;;;;16.62;53.04;102703.94;1016838;29;726;-83
2022/03/23 03:40:13;;;;;;;;;;;;;;;16.62;52.68;102706.63;1016768;29;631;-83
2022/03/23 03:41:03;;;;;;;;;;;;;;;16.62;52.75;102715.56;1016813;29;702;-84
2022/03/23 03:41:54;;;;;;;;;;;;;;;16.61;52.75;102711.13;1016906;29;667;-84
2022/03/23 03:42:44;;;;;;;;;;;;;;;16.61;52.85;102704.88;1016761;29;694;-84
2022/03/23 03:43:35;;;;;;;;;;;;;;;16.60;52.63;102706.72;1017646;29;765;-84
2022/03/23 03:44:25;;;;;;;;;;;;;;;16.60;52.99;102709.41;1017585;29;698;-84
2022/03/23 03:45:16;;;;;;;;;;;;;;;16.59;52.55;102706.78;1016825;29;623;-84
2022/03/23 03:46:06;;;;;;;;;;;;;;;16.59;52.69;102710.34;1017494;29;659;-84
2022/03/23 03:46:56;;;;;;;;;;;;;;;16.59;52.79;102704.09;1016714;29;687;-83
2022/03/23 03:47:47;;;;;;;;;;;;;;;16.57;52.51;102708.72;1017376;29;671;-84
2022/03/23 03:48:37;;;;;;;;;;;;;;;16.58;52.55;102705.94;1016746;29;596;-84
2022/03/23 03:49:28;;;;;;;;;;;;;;;16.57;52.89;102712.28;1016750;29;722;-84
2022/03/23 03:50:18;;;;;;;;;;;;;;;16.57;52.60;102704.19;1017323;29;718;-84
2022/03/23 03:51:09;;;;;;;;;;;;;;;16.55;52.76;102706.09;1017349;29;786;-83
2022/03/23 03:52:01;;;;;;;;;;;;;;;16.56;52.66;102706.97;1016764;29;640;-83
2022/03/23 03:52:51;;;;;;;;;;;;;;;16.56;52.69;102709.66;1017336;29;619;-85
2022/03/23 03:53:42;;;;;;;;;;;;;;;16.55;52.55;102702.56;1017092;29;1658;-84
2022/03/23 03:54:32;;;;;;;;;;;;;;;16.53;52.57;102708.03;1017203;29;702;-84
2022/03/23 03:55:23;;;;;;;;;;;;;;;16.53;52.75;102701.78;1017231;29;675;-84
2022/03/23 03:56:13;;;;;;;;;;;;;;;16.53;52.84;102708.03;1017366;29;694;-84
2022/03/23 03:57:03;;;;;;;;;;;;;;;16.53;52.33;102705.34;1017406;29;620;-83
2022/03/23 03:57:54;;;;;;;;;;;;;;;16.54;52.53;102706.19;1017925;29;734;-84
2022/03/23 03:58:44;;;;;;;;;;;;;;;16.54;52.67;102700.81;1017340;29;635;-84
2022/03/23 03:59:35;;;;;;;;;;;;;;;16.51;52.64;102707.25;1017291;29;729;-84
2022/03/23 04:00:25;;;;;;;;;;;;;;;16.51;52.60;102709.94;1017258;29;1026;-84
2022/03/23 04:01:15;;;;;;;;;;;;;;;16.51;52.55;102704.56;1017327;29;713;-84
2022/03/23 04:02:06;;;;;;;;;;;;;;;16.51;52.99;102703.69;1017315;29;675;-84
2022/03/23 04:02:56;;;;;;;;;;;;;;;16.50;52.58;102707.34;1017271;29;628;-84
2022/03/23 04:03:47;;;;;;;;;;;;;;;16.49;52.63;102708.28;1020840;29;655;-84
2022/03/23 04:04:37;;;;;;;;;;;;;;;16.49;52.21;102711.84;1020858;29;956;-85
2022/03/23 04:05:28;;;;;;;;;;;;;;;16.50;52.56;102707.34;1017312;29;655;-84
2022/03/23 04:06:20;;;;;;;;;;;;;;;16.48;52.72;102714.66;1017384;29;678;-83
2022/03/23 04:07:10;;;;;;;;;;;;;;;16.48;52.66;102707.44;1017278;29;639;-82
2022/03/23 04:08:01;;;;;;;;;;;;;;;16.47;52.54;102708.41;1017185;29;1214;-83
2022/03/23 04:08:51;;;;;;;;;;;;;;;16.45;52.93;102706.75;1017281;29;625;-83
2022/03/23 04:09:42;;;;;;;;;;;;;;;16.47;52.39;102712.94;1017254;29;640;-82
2022/03/23 04:10:33;;;;;;;;;;;;;;;16.46;52.28;102712.06;1017336;29;649;-84
2022/03/23 04:11:23;;;;;;;;;;;;;;;16.46;52.60;102714.75;1017240;29;694;-84
2022/03/23 04:12:14;;;;;;;;;;;;;;;16.45;52.62;102707.63;1017192;29;688;-84
2022/03/23 04:13:07;;;;;;;;;;;;;;;16.46;52.57;102712.06;1017278;29;632;-84
2022/03/23 04:13:58;;;;;;;;;;;;;;;16.44;52.27;102707.72;1017394;29;703;-86
2022/03/23 04:14:48;;;;;;;;;;;;;;;16.45;52.54;102712.16;1017768;29;710;-83
2022/03/23 04:15:39;;;;;;;;;;;;;;;16.43;52.60;102711.38;1017280;29;670;-83
2022/03/23 04:16:29;;;;;;;;;;;;;;;16.43;52.34;102714.06;1017429;29;619;-78
2022/03/23 04:17:20;;;;;;;;;;;;;;;16.42;52.78;102720.41;1017007;29;730;-78
2022/03/23 04:18:10;;;;;;;;;;;;;;;16.42;52.70;102710.50;1017326;29;620;-78
2022/03/23 04:19:01;;;;;;;;;;;;;;;16.41;52.61;102713.28;1017349;29;686;-78
2022/03/23 04:19:51;;;;;;;;;;;;;;;16.41;52.33;102714.16;1017307;29;702;-78
2022/03/23 04:20:41;;;;;;;;;;;;;;;16.40;52.68;102712.41;1017103;29;633;-77
2022/03/23 04:21:32;;;;;;;;;;;;;;;16.41;52.50;102718.66;1017760;29;655;-77
2022/03/23 04:22:22;;;;;;;;;;;;;;;16.41;52.78;102718.66;1017140;29;645;-77
2022/03/23 04:23:13;;;;;;;;;;;;;;;16.40;52.69;102719.63;1017276;29;675;-78
2022/03/23 04:24:03;;;;;;;;;;;;;;;16.39;52.50;102716.06;1017251;29;1432;-78
2022/03/23 04:24:53;;;;;;;;;;;;;;;16.38;52.60;102714.34;1017205;29;686;-78
2022/03/23 04:25:44;;;;;;;;;;;;;;;16.39;52.50;102715.19;1017094;29;1555;-78
2022/03/23 04:26:34;;;;;;;;;;;;;;;16.38;52.59;102719.72;1017170;29;698;-78
2022/03/23 04:27:25;;;;;;;;;;;;;;;16.37;53.03;102715.28;1017226;29;674;-78
2022/03/23 04:28:15;;;;;;;;;;;;;;;16.37;52.60;102711.72;1017329;29;685;-78
2022/03/23 04:29:06;;;;;;;;;;;;;;;16.36;52.47;102726.13;1017309;29;615;-80
2022/03/23 04:29:56;;;;;;;;;;;;;;;16.36;52.65;102715.38;1017240;29;663;-79
2022/03/23 04:30:47;;;;;;;;;;;;;;;16.35;52.55;102719.03;1016790;29;698;-80
2022/03/23 04:31:38;;;;;;;;;;;;;;;16.36;52.65;102720.75;1017321;29;730;-80
2022/03/23 04:32:28;;;;;;;;;;;;;;;16.35;52.55;102713.63;1017225;29;654;-79
2022/03/23 04:33:19;;;;;;;;;;;;;;;16.35;52.61;102713.63;1017118;29;1907;-79
2022/03/23 04:34:09;;;;;;;;;;;;;;;16.35;52.26;102719.03;1017275;29;635;-79
2022/03/23 04:35:00;;;;;;;;;;;;;;;16.33;52.81;102719.97;1017250;29;667;-80
2022/03/23 04:35:50;;;;;;;;;;;;;;;16.34;52.66;102718.16;1017236;29;643;-80
2022/03/23 04:36:41;;;;;;;;;;;;;;;16.33;52.81;102719.97;1017189;29;647;-80